sensor_id;sensor_type;location;lat;lon;timestamp;P1;durP1;ratioP1;P2;durP2;ratioP2
2872;SDS011;1444;49.166;7.312;2022-08-19T00:00:48;21.60;;;17.30;;
2872;SDS011;1444;49.166;7.312;2022-08-19T00:03:15;23.53;;;17.17;;
2872;SDS011;1444;49.166;7.312;2022-08-19T00:05:43;30.20;;;20.67;;
2872;SDS011;1444;49.166;7.312;2022-08-19T00:08:10;26.33;;;19.10;;
2872;SDS011;1444;49.166;7.312;2022-08-19T00:10:37;21.20;;;17.20;;
2872;SDS011;1444;49.166;7.312;2022-08-19T00:13:04;27.43;;;18.30;;
2872;SDS011;1444;49.166;7.312;2022-08-19T00:15:30;26.03;;;21.80;;
2872;SDS011;1444;49.166;7.312;2022-08-19T00:17:57;19.77;;;17.40;;
2872;SDS011;1444;49.166;7.312;2022-08-19T00:20:24;28.43;;;20.90;;
2872;SDS011;1444;49.166;7.312;2022-08-19T00:22:52;28.43;;;22.20;;
2872;SDS011;1444;49.166;7.312;2022-08-19T00:25:20;37.60;;;25.70;;
2872;SDS011;1444;49.166;7.312;2022-08-19T00:27:47;21.30;;;17.33;;
2872;SDS011;1444;49.166;7.312;2022-08-19T00:30:14;21.23;;;15.77;;
2872;SDS011;1444;49.166;7.312;2022-08-19T00:32:41;22.93;;;17.53;;
2872;SDS011;1444;49.166;7.312;2022-08-19T00:35:08;19.67;;;16.50;;
2872;SDS011;1444;49.166;7.312;2022-08-19T00:37:35;21.63;;;17.90;;
2872;SDS011;1444;49.166;7.312;2022-08-19T00:40:04;19.10;;;16.90;;
2872;SDS011;1444;49.166;7.312;2022-08-19T00:42:32;23.43;;;18.60;;
2872;SDS011;1444;49.166;7.312;2022-08-19T00:44:59;21.80;;;16.80;;
2872;SDS011;1444;49.166;7.312;2022-08-19T00:47:25;23.43;;;19.37;;
2872;SDS011;1444;49.166;7.312;2022-08-19T00:49:54;25.20;;;19.70;;
2872;SDS011;1444;49.166;7.312;2022-08-19T00:52:24;26.27;;;19.90;;
2872;SDS011;1444;49.166;7.312;2022-08-19T00:54:54;25.00;;;18.20;;
2872;SDS011;1444;49.166;7.312;2022-08-19T00:57:24;24.20;;;18.40;;
2872;SDS011;1444;49.166;7.312;2022-08-19T00:59:54;23.43;;;15.30;;
2872;SDS011;1444;49.166;7.312;2022-08-19T01:02:23;21.93;;;18.90;;
2872;SDS011;1444;49.166;7.312;2022-08-19T01:04:50;23.00;;;18.30;;
2872;SDS011;1444;49.166;7.312;2022-08-19T01:07:17;21.00;;;16.80;;
2872;SDS011;1444;49.166;7.312;2022-08-19T01:09:44;24.83;;;17.60;;
2872;SDS011;1444;49.166;7.312;2022-08-19T01:12:11;19.67;;;15.93;;
2872;SDS011;1444;49.166;7.312;2022-08-19T01:14:39;19.47;;;16.27;;
2872;SDS011;1444;49.166;7.312;2022-08-19T01:17:07;17.83;;;15.17;;
2872;SDS011;1444;49.166;7.312;2022-08-19T01:19:36;20.80;;;17.67;;
2872;SDS011;1444;49.166;7.312;2022-08-19T01:22:06;20.57;;;16.10;;
2872;SDS011;1444;49.166;7.312;2022-08-19T01:24:38;22.40;;;17.60;;
2872;SDS011;1444;49.166;7.312;2022-08-19T01:27:06;36.10;;;19.37;;
2872;SDS011;1444;49.166;7.312;2022-08-19T01:29:34;26.30;;;21.20;;
2872;SDS011;1444;49.166;7.312;2022-08-19T01:32:06;29.23;;;20.10;;
2872;SDS011;1444;49.166;7.312;2022-08-19T01:34:34;27.87;;;19.43;;
2872;SDS011;1444;49.166;7.312;2022-08-19T01:37:04;25.43;;;18.60;;
2872;SDS011;1444;49.166;7.312;2022-08-19T01:39:33;23.77;;;18.30;;
2872;SDS011;1444;49.166;7.312;2022-08-19T01:42:02;21.23;;;17.30;;
2872;SDS011;1444;49.166;7.312;2022-08-19T01:44:29;23.90;;;19.83;;
2872;SDS011;1444;49.166;7.312;2022-08-19T01:46:56;26.27;;;17.63;;
2872;SDS011;1444;49.166;7.312;2022-08-19T01:49:23;27.37;;;20.23;;
2872;SDS011;1444;49.166;7.312;2022-08-19T01:51:51;26.90;;;19.57;;
2872;SDS011;1444;49.166;7.312;2022-08-19T01:54:19;23.73;;;18.10;;
2872;SDS011;1444;49.166;7.312;2022-08-19T01:56:48;26.50;;;17.40;;
2872;SDS011;1444;49.166;7.312;2022-08-19T01:59:18;26.97;;;20.80;;
2872;SDS011;1444;49.166;7.312;2022-08-19T02:01:47;29.70;;;19.43;;
2872;SDS011;1444;49.166;7.312;2022-08-19T02:04:14;36.63;;;23.97;;
2872;SDS011;1444;49.166;7.312;2022-08-19T02:06:41;32.70;;;23.27;;
2872;SDS011;1444;49.166;7.312;2022-08-19T02:09:07;28.30;;;18.53;;
2872;SDS011;1444;49.166;7.312;2022-08-19T02:11:35;27.60;;;19.83;;
2872;SDS011;1444;49.166;7.312;2022-08-19T02:14:03;26.67;;;19.30;;
2872;SDS011;1444;49.166;7.312;2022-08-19T02:16:33;28.40;;;20.60;;
2872;SDS011;1444;49.166;7.312;2022-08-19T02:19:00;29.23;;;18.47;;
2872;SDS011;1444;49.166;7.312;2022-08-19T02:21:28;27.67;;;19.10;;
2872;SDS011;1444;49.166;7.312;2022-08-19T02:23:55;24.33;;;18.80;;
2872;SDS011;1444;49.166;7.312;2022-08-19T02:26:23;29.17;;;21.70;;
2872;SDS011;1444;49.166;7.312;2022-08-19T02:28:51;24.60;;;19.30;;
2872;SDS011;1444;49.166;7.312;2022-08-19T02:31:19;22.43;;;17.80;;
2872;SDS011;1444;49.166;7.312;2022-08-19T02:33:49;23.80;;;17.63;;
2872;SDS011;1444;49.166;7.312;2022-08-19T02:36:17;22.47;;;17.50;;
2872;SDS011;1444;49.166;7.312;2022-08-19T02:38:44;30.90;;;19.17;;
2872;SDS011;1444;49.166;7.312;2022-08-19T02:41:11;23.43;;;18.87;;
2872;SDS011;1444;49.166;7.312;2022-08-19T02:43:39;29.40;;;19.40;;
2872;SDS011;1444;49.166;7.312;2022-08-19T02:46:14;25.40;;;19.27;;
2872;SDS011;1444;49.166;7.312;2022-08-19T02:48:45;27.13;;;20.27;;
2872;SDS011;1444;49.166;7.312;2022-08-19T02:51:17;28.40;;;20.50;;
2872;SDS011;1444;49.166;7.312;2022-08-19T02:53:45;23.40;;;17.83;;
2872;SDS011;1444;49.166;7.312;2022-08-19T02:56:12;27.43;;;18.50;;
2872;SDS011;1444;49.166;7.312;2022-08-19T02:58:39;34.83;;;21.13;;
2872;SDS011;1444;49.166;7.312;2022-08-19T03:01:06;33.57;;;22.20;;
2872;SDS011;1444;49.166;7.312;2022-08-19T03:03:33;53.17;;;25.27;;
2872;SDS011;1444;49.166;7.312;2022-08-19T03:06:07;26.50;;;19.63;;
2872;SDS011;1444;49.166;7.312;2022-08-19T03:08:37;28.27;;;20.23;;
2872;SDS011;1444;49.166;7.312;2022-08-19T03:11:04;26.07;;;17.80;;
2872;SDS011;1444;49.166;7.312;2022-08-19T03:13:31;24.43;;;20.13;;
2872;SDS011;1444;49.166;7.312;2022-08-19T03:15:58;31.77;;;22.10;;
2872;SDS011;1444;49.166;7.312;2022-08-19T03:18:25;26.87;;;20.00;;
2872;SDS011;1444;49.166;7.312;2022-08-19T03:20:52;33.23;;;20.77;;
2872;SDS011;1444;49.166;7.312;2022-08-19T03:23:19;35.93;;;20.00;;
2872;SDS011;1444;49.166;7.312;2022-08-19T03:25:48;31.83;;;20.80;;
2872;SDS011;1444;49.166;7.312;2022-08-19T03:28:18;33.03;;;22.87;;
2872;SDS011;1444;49.166;7.312;2022-08-19T03:30:54;30.67;;;21.50;;
2872;SDS011;1444;49.166;7.312;2022-08-19T03:33:23;26.13;;;18.23;;
2872;SDS011;1444;49.166;7.312;2022-08-19T03:35:59;30.00;;;20.80;;
2872;SDS011;1444;49.166;7.312;2022-08-19T03:38:31;27.23;;;19.80;;
2872;SDS011;1444;49.166;7.312;2022-08-19T03:41:03;27.77;;;18.40;;
2872;SDS011;1444;49.166;7.312;2022-08-19T03:43:31;28.53;;;19.30;;
2872;SDS011;1444;49.166;7.312;2022-08-19T03:46:00;30.17;;;21.17;;
2872;SDS011;1444;49.166;7.312;2022-08-19T03:48:27;32.30;;;23.53;;
2872;SDS011;1444;49.166;7.312;2022-08-19T03:50:55;34.53;;;21.27;;
2872;SDS011;1444;49.166;7.312;2022-08-19T03:53:23;30.50;;;22.00;;
2872;SDS011;1444;49.166;7.312;2022-08-19T03:55:50;30.87;;;22.13;;
2872;SDS011;1444;49.166;7.312;2022-08-19T03:58:19;28.17;;;20.30;;
2872;SDS011;1444;49.166;7.312;2022-08-19T04:00:46;32.73;;;21.07;;
2872;SDS011;1444;49.166;7.312;2022-08-19T04:03:12;26.10;;;18.70;;
2872;SDS011;1444;49.166;7.312;2022-08-19T04:05:39;30.30;;;19.20;;
2872;SDS011;1444;49.166;7.312;2022-08-19T04:08:06;28.03;;;19.70;;
2872;SDS011;1444;49.166;7.312;2022-08-19T04:10:35;29.60;;;22.83;;
2872;SDS011;1444;49.166;7.312;2022-08-19T04:13:02;42.93;;;25.93;;
2872;SDS011;1444;49.166;7.312;2022-08-19T04:15:31;30.67;;;22.33;;
2872;SDS011;1444;49.166;7.312;2022-08-19T04:18:04;31.73;;;22.13;;
2872;SDS011;1444;49.166;7.312;2022-08-19T04:20:32;29.47;;;20.50;;
2872;SDS011;1444;49.166;7.312;2022-08-19T04:22:59;27.53;;;20.03;;
2872;SDS011;1444;49.166;7.312;2022-08-19T04:25:26;27.13;;;20.47;;
2872;SDS011;1444;49.166;7.312;2022-08-19T04:27:52;29.70;;;20.63;;
2872;SDS011;1444;49.166;7.312;2022-08-19T04:30:19;30.43;;;19.27;;
2872;SDS011;1444;49.166;7.312;2022-08-19T04:32:48;31.07;;;20.30;;
2872;SDS011;1444;49.166;7.312;2022-08-19T04:35:15;33.07;;;21.70;;
2872;SDS011;1444;49.166;7.312;2022-08-19T04:37:42;29.40;;;20.03;;
2872;SDS011;1444;49.166;7.312;2022-08-19T04:40:09;29.63;;;20.27;;
2872;SDS011;1444;49.166;7.312;2022-08-19T04:42:54;24.40;;;18.20;;
2872;SDS011;1444;49.166;7.312;2022-08-19T04:45:21;26.10;;;20.17;;
2872;SDS011;1444;49.166;7.312;2022-08-19T04:47:49;27.60;;;18.57;;
2872;SDS011;1444;49.166;7.312;2022-08-19T04:50:22;30.63;;;19.93;;
2872;SDS011;1444;49.166;7.312;2022-08-19T04:52:49;31.90;;;20.00;;
2872;SDS011;1444;49.166;7.312;2022-08-19T04:55:18;29.43;;;21.00;;
2872;SDS011;1444;49.166;7.312;2022-08-19T04:57:44;30.60;;;21.47;;
2872;SDS011;1444;49.166;7.312;2022-08-19T05:00:12;30.40;;;18.43;;
2872;SDS011;1444;49.166;7.312;2022-08-19T05:02:38;29.33;;;20.47;;
2872;SDS011;1444;49.166;7.312;2022-08-19T05:05:07;36.37;;;23.07;;
2872;SDS011;1444;49.166;7.312;2022-08-19T05:07:34;32.30;;;21.03;;
2872;SDS011;1444;49.166;7.312;2022-08-19T05:10:02;35.07;;;22.50;;
2872;SDS011;1444;49.166;7.312;2022-08-19T05:12:30;32.43;;;22.37;;
2872;SDS011;1444;49.166;7.312;2022-08-19T05:14:57;31.37;;;20.67;;
2872;SDS011;1444;49.166;7.312;2022-08-19T05:17:25;34.87;;;22.77;;
2872;SDS011;1444;49.166;7.312;2022-08-19T05:19:53;30.60;;;20.27;;
2872;SDS011;1444;49.166;7.312;2022-08-19T05:22:38;27.40;;;20.43;;
2872;SDS011;1444;49.166;7.312;2022-08-19T05:25:07;39.33;;;21.53;;
2872;SDS011;1444;49.166;7.312;2022-08-19T05:27:37;32.60;;;21.80;;
2872;SDS011;1444;49.166;7.312;2022-08-19T05:30:04;31.20;;;20.80;;
2872;SDS011;1444;49.166;7.312;2022-08-19T05:32:31;27.10;;;20.50;;
2872;SDS011;1444;49.166;7.312;2022-08-19T05:34:58;33.47;;;22.90;;
2872;SDS011;1444;49.166;7.312;2022-08-19T05:37:25;29.40;;;19.83;;
2872;SDS011;1444;49.166;7.312;2022-08-19T05:39:54;32.57;;;21.80;;
2872;SDS011;1444;49.166;7.312;2022-08-19T05:42:21;30.47;;;19.57;;
2872;SDS011;1444;49.166;7.312;2022-08-19T05:44:49;28.90;;;20.50;;
2872;SDS011;1444;49.166;7.312;2022-08-19T05:47:16;28.40;;;20.10;;
2872;SDS011;1444;49.166;7.312;2022-08-19T05:49:44;32.07;;;19.50;;
2872;SDS011;1444;49.166;7.312;2022-08-19T05:52:12;28.57;;;21.20;;
2872;SDS011;1444;49.166;7.312;2022-08-19T05:54:40;30.17;;;21.20;;
2872;SDS011;1444;49.166;7.312;2022-08-19T05:57:09;35.37;;;22.13;;
2872;SDS011;1444;49.166;7.312;2022-08-19T05:59:36;36.73;;;23.10;;
2872;SDS011;1444;49.166;7.312;2022-08-19T06:02:03;33.40;;;22.23;;
2872;SDS011;1444;49.166;7.312;2022-08-19T06:04:32;44.03;;;25.23;;
2872;SDS011;1444;49.166;7.312;2022-08-19T06:06:59;34.47;;;22.67;;
2872;SDS011;1444;49.166;7.312;2022-08-19T06:09:26;41.30;;;24.07;;
2872;SDS011;1444;49.166;7.312;2022-08-19T06:11:54;48.93;;;23.90;;
2872;SDS011;1444;49.166;7.312;2022-08-19T06:14:26;36.33;;;23.30;;
2872;SDS011;1444;49.166;7.312;2022-08-19T06:16:55;41.33;;;22.87;;
2872;SDS011;1444;49.166;7.312;2022-08-19T06:19:24;40.60;;;25.63;;
2872;SDS011;1444;49.166;7.312;2022-08-19T06:21:52;35.47;;;22.60;;
2872;SDS011;1444;49.166;7.312;2022-08-19T06:24:20;39.17;;;23.40;;
2872;SDS011;1444;49.166;7.312;2022-08-19T06:26:49;32.07;;;22.40;;
2872;SDS011;1444;49.166;7.312;2022-08-19T06:29:17;29.63;;;21.17;;
2872;SDS011;1444;49.166;7.312;2022-08-19T06:31:48;33.80;;;22.17;;
2872;SDS011;1444;49.166;7.312;2022-08-19T06:34:17;30.97;;;22.47;;
2872;SDS011;1444;49.166;7.312;2022-08-19T06:36:45;31.57;;;22.73;;
2872;SDS011;1444;49.166;7.312;2022-08-19T06:39:15;34.00;;;22.73;;
2872;SDS011;1444;49.166;7.312;2022-08-19T06:41:46;31.90;;;21.37;;
2872;SDS011;1444;49.166;7.312;2022-08-19T06:44:14;36.60;;;22.83;;
2872;SDS011;1444;49.166;7.312;2022-08-19T06:46:41;31.50;;;21.17;;
2872;SDS011;1444;49.166;7.312;2022-08-19T06:49:10;32.43;;;20.27;;
2872;SDS011;1444;49.166;7.312;2022-08-19T06:51:39;23.70;;;17.77;;
2872;SDS011;1444;49.166;7.312;2022-08-19T06:54:08;22.63;;;18.50;;
2872;SDS011;1444;49.166;7.312;2022-08-19T06:56:35;24.50;;;17.80;;
2872;SDS011;1444;49.166;7.312;2022-08-19T06:59:03;26.27;;;18.90;;
2872;SDS011;1444;49.166;7.312;2022-08-19T07:01:33;24.27;;;18.70;;
2872;SDS011;1444;49.166;7.312;2022-08-19T07:04:02;22.23;;;17.20;;
2872;SDS011;1444;49.166;7.312;2022-08-19T07:06:31;26.90;;;17.13;;
2872;SDS011;1444;49.166;7.312;2022-08-19T07:08:58;19.83;;;15.97;;
2872;SDS011;1444;49.166;7.312;2022-08-19T07:11:24;23.70;;;17.30;;
2872;SDS011;1444;49.166;7.312;2022-08-19T07:13:51;27.37;;;19.33;;
2872;SDS011;1444;49.166;7.312;2022-08-19T07:16:18;27.07;;;17.60;;
2872;SDS011;1444;49.166;7.312;2022-08-19T07:18:46;28.03;;;19.00;;
2872;SDS011;1444;49.166;7.312;2022-08-19T07:21:15;31.97;;;20.27;;
2872;SDS011;1444;49.166;7.312;2022-08-19T07:23:45;29.47;;;19.63;;
2872;SDS011;1444;49.166;7.312;2022-08-19T07:26:14;23.80;;;18.40;;
2872;SDS011;1444;49.166;7.312;2022-08-19T07:28:44;18.87;;;15.63;;
2872;SDS011;1444;49.166;7.312;2022-08-19T07:31:12;22.53;;;17.83;;
2872;SDS011;1444;49.166;7.312;2022-08-19T07:33:41;22.20;;;16.33;;
2872;SDS011;1444;49.166;7.312;2022-08-19T07:36:09;21.90;;;17.80;;
2872;SDS011;1444;49.166;7.312;2022-08-19T07:38:38;23.23;;;19.57;;
2872;SDS011;1444;49.166;7.312;2022-08-19T07:41:09;29.80;;;20.30;;
2872;SDS011;1444;49.166;7.312;2022-08-19T07:43:37;26.97;;;18.60;;
2872;SDS011;1444;49.166;7.312;2022-08-19T07:46:04;25.00;;;18.90;;
2872;SDS011;1444;49.166;7.312;2022-08-19T07:48:31;18.33;;;15.60;;
2872;SDS011;1444;49.166;7.312;2022-08-19T07:50:59;23.40;;;18.07;;
2872;SDS011;1444;49.166;7.312;2022-08-19T07:53:27;23.27;;;18.20;;
2872;SDS011;1444;49.166;7.312;2022-08-19T07:55:55;31.30;;;18.20;;
2872;SDS011;1444;49.166;7.312;2022-08-19T07:58:24;20.17;;;17.53;;
2872;SDS011;1444;49.166;7.312;2022-08-19T08:00:52;22.53;;;17.77;;
2872;SDS011;1444;49.166;7.312;2022-08-19T08:03:19;20.40;;;17.87;;
2872;SDS011;1444;49.166;7.312;2022-08-19T08:06:08;19.00;;;16.87;;
2872;SDS011;1444;49.166;7.312;2022-08-19T08:09:07;21.27;;;15.73;;
2872;SDS011;1444;49.166;7.312;2022-08-19T08:11:41;22.40;;;18.60;;
2872;SDS011;1444;49.166;7.312;2022-08-19T08:14:16;25.73;;;19.30;;
2872;SDS011;1444;49.166;7.312;2022-08-19T08:16:44;22.30;;;18.10;;
2872;SDS011;1444;49.166;7.312;2022-08-19T08:19:12;28.00;;;19.80;;
2872;SDS011;1444;49.166;7.312;2022-08-19T08:21:40;20.37;;;17.30;;
2872;SDS011;1444;49.166;7.312;2022-08-19T08:24:07;19.50;;;16.63;;
2872;SDS011;1444;49.166;7.312;2022-08-19T08:26:34;26.33;;;18.90;;
2872;SDS011;1444;49.166;7.312;2022-08-19T08:29:01;22.53;;;18.30;;
2872;SDS011;1444;49.166;7.312;2022-08-19T08:31:29;22.23;;;18.57;;
2872;SDS011;1444;49.166;7.312;2022-08-19T08:33:58;19.77;;;17.43;;
2872;SDS011;1444;49.166;7.312;2022-08-19T08:36:25;20.37;;;18.00;;
2872;SDS011;1444;49.166;7.312;2022-08-19T08:38:52;27.67;;;17.43;;
2872;SDS011;1444;49.166;7.312;2022-08-19T08:41:22;22.53;;;15.60;;
2872;SDS011;1444;49.166;7.312;2022-08-19T08:43:54;16.67;;;12.30;;
2872;SDS011;1444;49.166;7.312;2022-08-19T08:46:24;23.57;;;15.00;;
2872;SDS011;1444;49.166;7.312;2022-08-19T08:48:59;17.20;;;14.77;;
2872;SDS011;1444;49.166;7.312;2022-08-19T08:51:33;19.83;;;15.17;;
2872;SDS011;1444;49.166;7.312;2022-08-19T08:54:04;16.03;;;13.70;;
2872;SDS011;1444;49.166;7.312;2022-08-19T08:56:32;19.03;;;13.93;;
2872;SDS011;1444;49.166;7.312;2022-08-19T08:59:01;13.80;;;12.13;;
2872;SDS011;1444;49.166;7.312;2022-08-19T09:01:32;14.50;;;13.00;;
2872;SDS011;1444;49.166;7.312;2022-08-19T09:04:00;17.00;;;12.53;;
2872;SDS011;1444;49.166;7.312;2022-08-19T09:06:32;16.20;;;12.77;;
2872;SDS011;1444;49.166;7.312;2022-08-19T09:09:04;16.30;;;14.50;;
2872;SDS011;1444;49.166;7.312;2022-08-19T09:11:42;14.97;;;12.37;;
2872;SDS011;1444;49.166;7.312;2022-08-19T09:14:27;16.13;;;12.50;;
2872;SDS011;1444;49.166;7.312;2022-08-19T09:16:59;12.53;;;11.17;;
2872;SDS011;1444;49.166;7.312;2022-08-19T09:19:29;12.60;;;11.30;;
2872;SDS011;1444;49.166;7.312;2022-08-19T09:21:56;13.20;;;11.80;;
2872;SDS011;1444;49.166;7.312;2022-08-19T09:24:25;14.83;;;11.10;;
2872;SDS011;1444;49.166;7.312;2022-08-19T09:26:52;11.87;;;10.67;;
2872;SDS011;1444;49.166;7.312;2022-08-19T09:29:19;18.40;;;10.90;;
2872;SDS011;1444;49.166;7.312;2022-08-19T09:31:46;15.00;;;11.13;;
2872;SDS011;1444;49.166;7.312;2022-08-19T09:34:12;10.60;;;9.63;;
2872;SDS011;1444;49.166;7.312;2022-08-19T09:36:41;13.70;;;9.40;;
2872;SDS011;1444;49.166;7.312;2022-08-19T09:39:08;14.20;;;10.70;;
2872;SDS011;1444;49.166;7.312;2022-08-19T09:41:34;10.00;;;9.13;;
2872;SDS011;1444;49.166;7.312;2022-08-19T09:44:01;11.60;;;10.50;;
2872;SDS011;1444;49.166;7.312;2022-08-19T09:46:28;12.00;;;10.80;;
2872;SDS011;1444;49.166;7.312;2022-08-19T09:48:57;11.27;;;9.33;;
2872;SDS011;1444;49.166;7.312;2022-08-19T09:51:26;11.87;;;10.80;;
2872;SDS011;1444;49.166;7.312;2022-08-19T09:53:59;10.33;;;9.33;;
2872;SDS011;1444;49.166;7.312;2022-08-19T09:56:27;10.00;;;9.10;;
2872;SDS011;1444;49.166;7.312;2022-08-19T09:58:57;10.07;;;9.17;;
2872;SDS011;1444;49.166;7.312;2022-08-19T10:01:25;11.47;;;10.37;;
2872;SDS011;1444;49.166;7.312;2022-08-19T10:03:53;13.33;;;9.60;;
2872;SDS011;1444;49.166;7.312;2022-08-19T10:06:22;11.10;;;10.03;;
2872;SDS011;1444;49.166;7.312;2022-08-19T10:08:50;9.97;;;8.97;;
2872;SDS011;1444;49.166;7.312;2022-08-19T10:11:19;10.60;;;9.70;;
2872;SDS011;1444;49.166;7.312;2022-08-19T10:13:46;10.17;;;9.30;;
2872;SDS011;1444;49.166;7.312;2022-08-19T10:16:14;11.23;;;9.97;;
2872;SDS011;1444;49.166;7.312;2022-08-19T10:18:43;12.03;;;8.97;;
2872;SDS011;1444;49.166;7.312;2022-08-19T10:21:12;11.90;;;9.50;;
2872;SDS011;1444;49.166;7.312;2022-08-19T10:23:40;12.03;;;8.93;;
2872;SDS011;1444;49.166;7.312;2022-08-19T10:26:09;11.63;;;8.90;;
2872;SDS011;1444;49.166;7.312;2022-08-19T10:28:38;12.10;;;10.40;;
2872;SDS011;1444;49.166;7.312;2022-08-19T10:31:06;9.40;;;8.50;;
2872;SDS011;1444;49.166;7.312;2022-08-19T10:33:33;9.47;;;8.50;;
2872;SDS011;1444;49.166;7.312;2022-08-19T10:36:02;8.97;;;8.10;;
2872;SDS011;1444;49.166;7.312;2022-08-19T10:38:30;10.00;;;8.50;;
2872;SDS011;1444;49.166;7.312;2022-08-19T10:41:05;13.30;;;9.93;;
2872;SDS011;1444;49.166;7.312;2022-08-19T10:43:33;10.03;;;9.00;;
2872;SDS011;1444;49.166;7.312;2022-08-19T10:46:04;10.63;;;9.63;;
2872;SDS011;1444;49.166;7.312;2022-08-19T10:48:31;11.20;;;10.10;;
2872;SDS011;1444;49.166;7.312;2022-08-19T10:50:58;10.40;;;9.50;;
2872;SDS011;1444;49.166;7.312;2022-08-19T10:53:43;9.13;;;8.40;;
2872;SDS011;1444;49.166;7.312;2022-08-19T10:56:09;8.87;;;8.03;;
2872;SDS011;1444;49.166;7.312;2022-08-19T10:58:53;9.80;;;8.80;;
2872;SDS011;1444;49.166;7.312;2022-08-19T11:01:23;8.50;;;7.80;;
2872;SDS011;1444;49.166;7.312;2022-08-19T11:03:49;10.93;;;9.37;;
2872;SDS011;1444;49.166;7.312;2022-08-19T11:06:17;10.17;;;8.50;;
2872;SDS011;1444;49.166;7.312;2022-08-19T11:08:44;9.83;;;8.87;;
2872;SDS011;1444;49.166;7.312;2022-08-19T11:11:12;11.40;;;8.40;;
2872;SDS011;1444;49.166;7.312;2022-08-19T11:13:41;8.50;;;7.80;;
2872;SDS011;1444;49.166;7.312;2022-08-19T11:16:13;9.63;;;8.73;;
2872;SDS011;1444;49.166;7.312;2022-08-19T11:18:43;9.13;;;8.33;;
2872;SDS011;1444;49.166;7.312;2022-08-19T11:21:14;8.90;;;8.20;;
2872;SDS011;1444;49.166;7.312;2022-08-19T11:23:44;9.43;;;8.60;;
2872;SDS011;1444;49.166;7.312;2022-08-19T11:26:11;9.57;;;8.77;;
2872;SDS011;1444;49.166;7.312;2022-08-19T11:28:38;9.43;;;8.43;;
2872;SDS011;1444;49.166;7.312;2022-08-19T11:31:08;8.33;;;7.57;;
2872;SDS011;1444;49.166;7.312;2022-08-19T11:33:36;8.20;;;7.60;;
2872;SDS011;1444;49.166;7.312;2022-08-19T11:36:05;9.93;;;8.17;;
2872;SDS011;1444;49.166;7.312;2022-08-19T11:38:32;9.43;;;7.90;;
2872;SDS011;1444;49.166;7.312;2022-08-19T11:40:59;8.63;;;7.77;;
2872;SDS011;1444;49.166;7.312;2022-08-19T11:43:27;8.93;;;8.13;;
2872;SDS011;1444;49.166;7.312;2022-08-19T11:45:56;8.27;;;7.50;;
2872;SDS011;1444;49.166;7.312;2022-08-19T11:48:23;11.00;;;6.87;;
2872;SDS011;1444;49.166;7.312;2022-08-19T11:50:51;8.20;;;7.40;;
2872;SDS011;1444;49.166;7.312;2022-08-19T11:53:21;7.80;;;7.03;;
2872;SDS011;1444;49.166;7.312;2022-08-19T11:55:49;7.43;;;6.53;;
2872;SDS011;1444;49.166;7.312;2022-08-19T11:58:21;6.70;;;6.20;;
2872;SDS011;1444;49.166;7.312;2022-08-19T12:00:49;7.13;;;6.47;;
2872;SDS011;1444;49.166;7.312;2022-08-19T12:03:16;7.30;;;6.60;;
2872;SDS011;1444;49.166;7.312;2022-08-19T12:05:44;8.00;;;6.93;;
2872;SDS011;1444;49.166;7.312;2022-08-19T12:08:11;6.60;;;6.00;;
2872;SDS011;1444;49.166;7.312;2022-08-19T12:10:41;7.13;;;5.93;;
2872;SDS011;1444;49.166;7.312;2022-08-19T12:13:09;6.63;;;6.03;;
2872;SDS011;1444;49.166;7.312;2022-08-19T12:15:37;8.10;;;6.87;;
2872;SDS011;1444;49.166;7.312;2022-08-19T12:18:06;10.10;;;6.43;;
2872;SDS011;1444;49.166;7.312;2022-08-19T12:20:34;7.33;;;6.13;;
2872;SDS011;1444;49.166;7.312;2022-08-19T12:23:02;5.60;;;5.10;;
2872;SDS011;1444;49.166;7.312;2022-08-19T12:25:29;5.43;;;4.93;;
2872;SDS011;1444;49.166;7.312;2022-08-19T12:27:57;5.90;;;5.40;;
2872;SDS011;1444;49.166;7.312;2022-08-19T12:30:24;6.53;;;4.80;;
2872;SDS011;1444;49.166;7.312;2022-08-19T12:32:51;5.30;;;4.90;;
2872;SDS011;1444;49.166;7.312;2022-08-19T12:35:18;6.67;;;4.73;;
2872;SDS011;1444;49.166;7.312;2022-08-19T12:37:46;11.57;;;5.07;;
2872;SDS011;1444;49.166;7.312;2022-08-19T12:40:14;6.60;;;4.93;;
2872;SDS011;1444;49.166;7.312;2022-08-19T12:42:42;4.60;;;3.97;;
2872;SDS011;1444;49.166;7.312;2022-08-19T12:45:11;4.97;;;4.57;;
2872;SDS011;1444;49.166;7.312;2022-08-19T12:47:39;6.33;;;4.30;;
2872;SDS011;1444;49.166;7.312;2022-08-19T12:50:06;4.60;;;4.20;;
2872;SDS011;1444;49.166;7.312;2022-08-19T12:52:34;6.97;;;4.60;;
2872;SDS011;1444;49.166;7.312;2022-08-19T12:55:03;5.50;;;5.10;;
2872;SDS011;1444;49.166;7.312;2022-08-19T12:57:31;5.13;;;4.73;;
2872;SDS011;1444;49.166;7.312;2022-08-19T13:00:04;5.87;;;5.37;;
2872;SDS011;1444;49.166;7.312;2022-08-19T13:02:37;6.07;;;5.63;;
2872;SDS011;1444;49.166;7.312;2022-08-19T13:05:06;7.33;;;6.63;;
2872;SDS011;1444;49.166;7.312;2022-08-19T13:07:35;11.27;;;9.07;;
2872;SDS011;1444;49.166;7.312;2022-08-19T13:10:03;10.97;;;9.50;;
2872;SDS011;1444;49.166;7.312;2022-08-19T13:12:31;9.13;;;8.37;;
2872;SDS011;1444;49.166;7.312;2022-08-19T13:14:58;10.10;;;9.20;;
2872;SDS011;1444;49.166;7.312;2022-08-19T13:17:25;12.03;;;10.90;;
2872;SDS011;1444;49.166;7.312;2022-08-19T13:19:53;10.13;;;9.23;;
2872;SDS011;1444;49.166;7.312;2022-08-19T13:22:20;10.03;;;9.13;;
2872;SDS011;1444;49.166;7.312;2022-08-19T13:24:46;12.20;;;10.90;;
2872;SDS011;1444;49.166;7.312;2022-08-19T13:27:14;11.20;;;10.17;;
2872;SDS011;1444;49.166;7.312;2022-08-19T13:29:41;15.70;;;11.80;;
2872;SDS011;1444;49.166;7.312;2022-08-19T13:32:25;12.33;;;11.13;;
2872;SDS011;1444;49.166;7.312;2022-08-19T13:35:11;13.03;;;11.73;;
2872;SDS011;1444;49.166;7.312;2022-08-19T13:37:38;13.60;;;12.30;;
2872;SDS011;1444;49.166;7.312;2022-08-19T13:40:09;13.87;;;12.27;;
2872;SDS011;1444;49.166;7.312;2022-08-19T13:42:40;12.67;;;11.47;;
2872;SDS011;1444;49.166;7.312;2022-08-19T13:45:08;13.43;;;12.13;;
2872;SDS011;1444;49.166;7.312;2022-08-19T13:47:35;14.03;;;12.73;;
2872;SDS011;1444;49.166;7.312;2022-08-19T13:50:04;19.60;;;14.60;;
2872;SDS011;1444;49.166;7.312;2022-08-19T13:52:32;17.47;;;13.30;;
2872;SDS011;1444;49.166;7.312;2022-08-19T13:54:59;12.67;;;11.47;;
2872;SDS011;1444;49.166;7.312;2022-08-19T13:57:26;13.73;;;12.33;;
2872;SDS011;1444;49.166;7.312;2022-08-19T13:59:52;13.97;;;12.57;;
2872;SDS011;1444;49.166;7.312;2022-08-19T14:02:19;15.07;;;13.47;;
2872;SDS011;1444;49.166;7.312;2022-08-19T14:04:46;14.73;;;11.27;;
2872;SDS011;1444;49.166;7.312;2022-08-19T14:07:12;12.80;;;11.50;;
2872;SDS011;1444;49.166;7.312;2022-08-19T14:09:40;13.57;;;12.17;;
2872;SDS011;1444;49.166;7.312;2022-08-19T14:12:07;13.17;;;11.87;;
2872;SDS011;1444;49.166;7.312;2022-08-19T14:14:35;12.63;;;10.43;;
2872;SDS011;1444;49.166;7.312;2022-08-19T14:17:05;15.60;;;11.20;;
2872;SDS011;1444;49.166;7.312;2022-08-19T14:19:32;11.87;;;10.60;;
2872;SDS011;1444;49.166;7.312;2022-08-19T14:21:59;19.17;;;12.07;;
2872;SDS011;1444;49.166;7.312;2022-08-19T14:24:25;14.40;;;9.77;;
2872;SDS011;1444;49.166;7.312;2022-08-19T14:26:54;12.40;;;11.10;;
2872;SDS011;1444;49.166;7.312;2022-08-19T14:29:20;10.80;;;9.50;;
2872;SDS011;1444;49.166;7.312;2022-08-19T14:31:47;10.13;;;9.10;;
2872;SDS011;1444;49.166;7.312;2022-08-19T14:34:14;13.23;;;10.97;;
2872;SDS011;1444;49.166;7.312;2022-08-19T14:36:40;10.80;;;9.73;;
2872;SDS011;1444;49.166;7.312;2022-08-19T14:39:07;10.77;;;9.67;;
2872;SDS011;1444;49.166;7.312;2022-08-19T14:41:35;9.43;;;8.60;;
2872;SDS011;1444;49.166;7.312;2022-08-19T14:44:03;10.20;;;8.90;;
2872;SDS011;1444;49.166;7.312;2022-08-19T14:46:30;8.80;;;8.00;;
2872;SDS011;1444;49.166;7.312;2022-08-19T14:48:57;8.73;;;7.83;;
2872;SDS011;1444;49.166;7.312;2022-08-19T14:51:24;8.57;;;7.77;;
2872;SDS011;1444;49.166;7.312;2022-08-19T14:53:52;7.63;;;6.60;;
2872;SDS011;1444;49.166;7.312;2022-08-19T14:56:20;8.50;;;7.70;;
2872;SDS011;1444;49.166;7.312;2022-08-19T14:58:48;6.00;;;5.33;;
2872;SDS011;1444;49.166;7.312;2022-08-19T15:01:18;6.70;;;6.20;;